sensor_id;sensor_type;location;lat;lon;timestamp;pressure;altitude;pressure_sealevel;temperature;humidity
26192;BME280;13935;55.672;37.764;2023-03-04T00:01:20;98379.06;;;0.76;100.00
26192;BME280;13935;55.672;37.764;2023-03-04T00:03:58;98366.53;;;0.71;100.00
26192;BME280;13935;55.672;37.764;2023-03-04T00:09:53;98365.47;;;0.57;100.00
26192;BME280;13935;55.672;37.764;2023-03-04T00:12:07;98363.59;;;0.42;100.00
26192;BME280;13935;55.672;37.764;2023-03-04T00:14:15;98363.09;;;0.37;100.00
26192;BME280;13935;55.672;37.764;2023-03-04T00:17:12;98353.72;;;0.53;100.00
26192;BME280;13935;55.672;37.764;2023-03-04T00:19:18;98348.28;;;0.53;100.00
26192;BME280;13935;55.672;37.764;2023-03-04T00:21:32;98352.78;;;0.46;100.00
26192;BME280;13935;55.672;37.764;2023-03-04T00:26:48;98344.25;;;0.47;100.00
26192;BME280;13935;55.672;37.764;2023-03-04T00:29:03;98339.84;;;0.58;100.00
26192;BME280;13935;55.672;37.764;2023-03-04T00:31:53;98341.78;;;0.39;100.00
26192;BME280;13935;55.672;37.764;2023-03-04T00:34:05;98337.28;;;0.46;100.00
26192;BME280;13935;55.672;37.764;2023-03-04T00:44:00;98327.09;;;0.43;100.00
26192;BME280;13935;55.672;37.764;2023-03-04T00:45:33;98323.88;;;0.38;100.00
26192;BME280;13935;55.672;37.764;2023-03-04T00:47:12;98320.59;;;0.29;100.00
26192;BME280;13935;55.672;37.764;2023-03-04T00:49:13;98323.38;;;0.51;100.00
26192;BME280;13935;55.672;37.764;2023-03-04T00:50:58;98318.25;;;0.46;100.00
26192;BME280;13935;55.672;37.764;2023-03-04T00:52:56;98318.59;;;0.45;100.00
26192;BME280;13935;55.672;37.764;2023-03-04T00:55:06;98316.38;;;0.50;100.00
26192;BME280;13935;55.672;37.764;2023-03-04T00:57:18;98318.28;;;0.50;100.00
26192;BME280;13935;55.672;37.764;2023-03-04T01:00:09;98310.56;;;0.52;100.00
26192;BME280;13935;55.672;37.764;2023-03-04T01:01:42;98304.84;;;0.57;100.00
26192;BME280;13935;55.672;37.764;2023-03-04T01:03:38;98313.22;;;0.48;100.00
26192;BME280;13935;55.672;37.764;2023-03-04T01:05:22;98311.47;;;0.59;100.00
26192;BME280;13935;55.672;37.764;2023-03-04T01:07:20;98305.78;;;0.45;100.00
26192;BME280;13935;55.672;37.764;2023-03-04T01:25:35;98312.88;;;0.31;100.00
26192;BME280;13935;55.672;37.764;2023-03-04T01:28:12;98312.22;;;0.37;100.00
26192;BME280;13935;55.672;37.764;2023-03-04T01:31:21;98303.91;;;0.49;100.00
26192;BME280;13935;55.672;37.764;2023-03-04T01:34:12;98299.16;;;0.43;100.00
26192;BME280;13935;55.672;37.764;2023-03-04T01:36:09;98303.00;;;0.42;100.00
26192;BME280;13935;55.672;37.764;2023-03-04T01:38:06;98303.72;;;0.39;100.00
26192;BME280;13935;55.672;37.764;2023-03-04T01:40:50;98302.28;;;0.45;100.00
26192;BME280;13935;55.672;37.764;2023-03-04T01:42:52;98306.09;;;0.40;100.00
26192;BME280;13935;55.672;37.764;2023-03-04T01:44:30;98302.91;;;0.57;100.00
26192;BME280;13935;55.672;37.764;2023-03-04T01:46:05;98299.47;;;0.60;100.00
26192;BME280;13935;55.672;37.764;2023-03-04T01:47:57;98297.34;;;0.50;100.00
26192;BME280;13935;55.672;37.764;2023-03-04T01:49:50;98300.59;;;0.59;100.00
26192;BME280;13935;55.672;37.764;2023-03-04T01:51:33;98291.97;;;0.54;100.00
26192;BME280;13935;55.672;37.764;2023-03-04T01:53:34;98302.09;;;0.57;100.00
26192;BME280;13935;55.672;37.764;2023-03-04T01:54:50;98291.59;;;0.55;100.00
26192;BME280;13935;55.672;37.764;2023-03-04T01:56:51;98288.75;;;0.48;100.00
26192;BME280;13935;55.672;37.764;2023-03-04T01:58:27;98293.19;;;0.56;100.00
26192;BME280;13935;55.672;37.764;2023-03-04T02:00:29;98289.53;;;0.49;100.00
26192;BME280;13935;55.672;37.764;2023-03-04T02:02:31;98282.75;;;0.39;100.00
26192;BME280;13935;55.672;37.764;2023-03-04T02:05:13;98292.19;;;0.45;100.00
26192;BME280;13935;55.672;37.764;2023-03-04T02:06:42;98283.44;;;0.55;100.00
26192;BME280;13935;55.672;37.764;2023-03-04T02:13:18;98269.56;;;0.41;100.00
26192;BME280;13935;55.672;37.764;2023-03-04T02:15:08;98267.16;;;0.36;100.00
26192;BME280;13935;55.672;37.764;2023-03-04T02:16:26;98265.00;;;0.45;100.00
26192;BME280;13935;55.672;37.764;2023-03-04T02:17:56;98263.88;;;0.46;100.00
26192;BME280;13935;55.672;37.764;2023-03-04T02:21:22;98260.00;;;0.28;100.00
26192;BME280;13935;55.672;37.764;2023-03-04T02:25:03;98249.03;;;0.44;100.00
26192;BME280;13935;55.672;37.764;2023-03-04T02:27:05;98244.94;;;0.53;100.00
26192;BME280;13935;55.672;37.764;2023-03-04T02:31:48;98243.13;;;0.38;100.00
26192;BME280;13935;55.672;37.764;2023-03-04T02:34:32;98243.84;;;0.35;100.00
26192;BME280;13935;55.672;37.764;2023-03-04T02:36:26;98234.25;;;0.22;100.00
26192;BME280;13935;55.672;37.764;2023-03-04T02:38:49;98231.38;;;0.34;100.00
26192;BME280;13935;55.672;37.764;2023-03-04T02:40:44;98225.09;;;0.30;100.00
26192;BME280;13935;55.672;37.764;2023-03-04T02:43:36;98231.28;;;0.27;100.00
26192;BME280;13935;55.672;37.764;2023-03-04T02:49:09;98222.00;;;0.32;100.00
26192;BME280;13935;55.672;37.764;2023-03-04T02:51:12;98216.66;;;0.35;100.00
26192;BME280;13935;55.672;37.764;2023-03-04T02:52:46;98209.41;;;0.20;100.00
26192;BME280;13935;55.672;37.764;2023-03-04T02:54:30;98200.75;;;0.15;100.00
26192;BME280;13935;55.672;37.764;2023-03-04T02:56:07;98204.38;;;0.03;100.00
26192;BME280;13935;55.672;37.764;2023-03-04T02:59:02;98198.63;;;0.05;100.00
26192;BME280;13935;55.672;37.764;2023-03-04T03:00:48;98197.94;;;0.11;100.00
26192;BME280;13935;55.672;37.764;2023-03-04T03:02:25;98200.81;;;0.18;100.00
26192;BME280;13935;55.672;37.764;2023-03-04T03:05:28;98193.59;;;-0.12;100.00
26192;BME280;13935;55.672;37.764;2023-03-04T03:08:12;98195.69;;;-0.24;100.00
26192;BME280;13935;55.672;37.764;2023-03-04T03:09:28;98194.78;;;-0.13;100.00
26192;BME280;13935;55.672;37.764;2023-03-04T03:11:08;98188.53;;;-0.13;100.00
26192;BME280;13935;55.672;37.764;2023-03-04T03:12:39;98187.69;;;-0.36;100.00
26192;BME280;13935;55.672;37.764;2023-03-04T03:17:53;98181.97;;;-0.31;100.00
26192;BME280;13935;55.672;37.764;2023-03-04T03:20:48;98172.09;;;-0.20;100.00
26192;BME280;13935;55.672;37.764;2023-03-04T03:22:39;98181.75;;;-0.04;100.00
26192;BME280;13935;55.672;37.764;2023-03-04T03:25:35;98181.75;;;-0.04;100.00
26192;BME280;13935;55.672;37.764;2023-03-04T03:27:08;98187.19;;;-0.23;100.00
26192;BME280;13935;55.672;37.764;2023-03-04T03:29:32;98180.25;;;-0.20;100.00
26192;BME280;13935;55.672;37.764;2023-03-04T03:30:46;98185.28;;;-0.22;100.00
26192;BME280;13935;55.672;37.764;2023-03-04T03:32:02;98177.53;;;-0.20;100.00
26192;BME280;13935;55.672;37.764;2023-03-04T03:33:48;98175.69;;;-0.16;100.00
26192;BME280;13935;55.672;37.764;2023-03-04T03:35:24;98168.97;;;-0.22;100.00
26192;BME280;13935;55.672;37.764;2023-03-04T03:36:48;98173.97;;;-0.05;100.00
26192;BME280;13935;55.672;37.764;2023-03-04T03:47:48;98160.81;;;-0.03;100.00
26192;BME280;13935;55.672;37.764;2023-03-04T03:49:03;98163.38;;;-0.10;100.00
26192;BME280;13935;55.672;37.764;2023-03-04T03:50:25;98154.63;;;-0.01;100.00
26192;BME280;13935;55.672;37.764;2023-03-04T03:51:45;98152.00;;;0.03;100.00
26192;BME280;13935;55.672;37.764;2023-03-04T03:53:02;98160.97;;;0.07;100.00
26192;BME280;13935;55.672;37.764;2023-03-04T03:54:17;98159.94;;;-0.07;100.00
26192;BME280;13935;55.672;37.764;2023-03-04T03:55:40;98157.44;;;-0.16;100.00
26192;BME280;13935;55.672;37.764;2023-03-04T04:05:04;98145.75;;;0.21;100.00
26192;BME280;13935;55.672;37.764;2023-03-04T04:10:03;98133.50;;;0.31;100.00
26192;BME280;13935;55.672;37.764;2023-03-04T04:11:31;98134.88;;;0.21;100.00
26192;BME280;13935;55.672;37.764;2023-03-04T04:12:59;98120.91;;;0.00;100.00
26192;BME280;13935;55.672;37.764;2023-03-04T04:14:30;98129.38;;;0.18;100.00
26192;BME280;13935;55.672;37.764;2023-03-04T04:16:08;98126.88;;;0.09;100.00
26192;BME280;13935;55.672;37.764;2023-03-04T04:17:49;98123.88;;;0.14;100.00
26192;BME280;13935;55.672;37.764;2023-03-04T04:19:19;98118.38;;;0.11;100.00
26192;BME280;13935;55.672;37.764;2023-03-04T04:21:51;98109.91;;;0.16;100.00
26192;BME280;13935;55.672;37.764;2023-03-04T04:23:44;98114.53;;;0.12;100.00
26192;BME280;13935;55.672;37.764;2023-03-04T04:25:15;98118.44;;;0.14;100.00
26192;BME280;13935;55.672;37.764;2023-03-04T04:26:42;98117.09;;;0.05;100.00
26192;BME280;13935;55.672;37.764;2023-03-04T04:28:17;98102.75;;;-0.14;100.00
26192;BME280;13935;55.672;37.764;2023-03-04T04:30:19;98109.25;;;-0.41;100.00
26192;BME280;13935;55.672;37.764;2023-03-04T04:31:37;98111.81;;;-0.29;100.00
26192;BME280;13935;55.672;37.764;2023-03-04T04:33:21;98114.91;;;-0.50;100.00
26192;BME280;13935;55.672;37.764;2023-03-04T04:36:20;98112.09;;;-0.34;100.00
26192;BME280;13935;55.672;37.764;2023-03-04T04:37:57;98107.78;;;-0.16;100.00
26192;BME280;13935;55.672;37.764;2023-03-04T04:39:14;98112.63;;;-0.06;100.00
26192;BME280;13935;55.672;37.764;2023-03-04T04:40:50;98106.97;;;-0.17;100.00
26192;BME280;13935;55.672;37.764;2023-03-04T04:42:29;98105.44;;;0.04;100.00
26192;BME280;13935;55.672;37.764;2023-03-04T04:44:21;98108.81;;;-0.02;100.00
26192;BME280;13935;55.672;37.764;2023-03-04T04:45:47;98104.59;;;0.00;100.00
26192;BME280;13935;55.672;37.764;2023-03-04T04:47:11;98104.59;;;0.00;100.00
26192;BME280;13935;55.672;37.764;2023-03-04T04:48:20;98111.72;;;-0.14;100.00
26192;BME280;13935;55.672;37.764;2023-03-04T04:49:49;98104.84;;;-0.08;100.00
26192;BME280;13935;55.672;37.764;2023-03-04T04:51:02;98107.19;;;-0.06;100.00
26192;BME280;13935;55.672;37.764;2023-03-04T04:52:36;98112.00;;;0.03;100.00
26192;BME280;13935;55.672;37.764;2023-03-04T04:53:48;98102.41;;;0.09;100.00
26192;BME280;13935;55.672;37.764;2023-03-04T04:55:30;98110.88;;;0.04;100.00
26192;BME280;13935;55.672;37.764;2023-03-04T04:56:45;98108.28;;;0.11;100.00
26192;BME280;13935;55.672;37.764;2023-03-04T04:59:14;98119.72;;;0.20;100.00
26192;BME280;13935;55.672;37.764;2023-03-04T05:02:25;98107.75;;;0.02;100.00
26192;BME280;13935;55.672;37.764;2023-03-04T05:04:01;98111.72;;;-0.14;100.00
26192;BME280;13935;55.672;37.764;2023-03-04T05:06:10;98107.81;;;0.06;100.00
26192;BME280;13935;55.672;37.764;2023-03-04T05:08:45;98118.44;;;0.14;100.00
26192;BME280;13935;55.672;37.764;2023-03-04T05:11:21;98113.00;;;0.14;100.00
26192;BME280;13935;55.672;37.764;2023-03-04T05:13:01;98099.59;;;0.02;100.00
26192;BME280;13935;55.672;37.764;2023-03-04T05:15:20;98117.22;;;0.34;100.00
26192;BME280;13935;55.672;37.764;2023-03-04T05:18:04;98115.09;;;0.47;100.00
26192;BME280;13935;55.672;37.764;2023-03-04T05:20:37;98111.06;;;0.37;100.00
26192;BME280;13935;55.672;37.764;2023-03-04T05:23:23;98103.88;;;0.74;100.00
26192;BME280;13935;55.672;37.764;2023-03-04T05:25:02;98095.56;;;0.64;100.00
26192;BME280;13935;55.672;37.764;2023-03-04T05:28:04;98096.97;;;0.80;100.00
26192;BME280;13935;55.672;37.764;2023-03-04T05:29:31;98095.59;;;0.93;100.00
26192;BME280;13935;55.672;37.764;2023-03-04T05:31:01;98089.13;;;0.75;100.00
26192;BME280;13935;55.672;37.764;2023-03-04T05:32:37;98085.59;;;1.00;100.00
26192;BME280;13935;55.672;37.764;2023-03-04T05:34:41;98086.16;;;1.13;100.00
26192;BME280;13935;55.672;37.764;2023-03-04T05:35:54;98088.34;;;1.30;100.00
26192;BME280;13935;55.672;37.764;2023-03-04T05:37:29;98073.00;;;1.47;100.00
26192;BME280;13935;55.672;37.764;2023-03-04T05:39:13;98079.84;;;1.67;100.00
26192;BME280;13935;55.672;37.764;2023-03-04T05:40:58;98071.78;;;1.78;100.00
26192;BME280;13935;55.672;37.764;2023-03-04T05:43:07;98073.25;;;1.68;100.00
26192;BME280;13935;55.672;37.764;2023-03-04T05:45:03;98065.53;;;1.77;100.00
26192;BME280;13935;55.672;37.764;2023-03-04T05:46:21;98067.16;;;1.82;100.00
26192;BME280;13935;55.672;37.764;2023-03-04T05:51:06;98060.22;;;1.91;100.00
26192;BME280;13935;55.672;37.764;2023-03-04T05:52:14;98071.91;;;1.88;100.00
26192;BME280;13935;55.672;37.764;2023-03-04T05:53:36;98056.38;;;1.96;100.00
26192;BME280;13935;55.672;37.764;2023-03-04T05:54:43;98059.56;;;2.01;100.00
26192;BME280;13935;55.672;37.764;2023-03-04T05:55:51;98062.00;;;2.13;100.00
26192;BME280;13935;55.672;37.764;2023-03-04T05:59:33;98059.06;;;2.32;100.00
26192;BME280;13935;55.672;37.764;2023-03-04T06:00:35;98059.72;;;2.18;100.00
26192;BME280;13935;55.672;37.764;2023-03-04T06:01:42;98066.34;;;2.21;100.00
26192;BME280;13935;55.672;37.764;2023-03-04T06:02:47;98064.31;;;2.11;100.00
26192;BME280;13935;55.672;37.764;2023-03-04T06:03:50;98064.31;;;2.11;100.00
26192;BME280;13935;55.672;37.764;2023-03-04T06:04:55;98057.31;;;2.10;100.00
26192;BME280;13935;55.672;37.764;2023-03-04T06:06:00;98050.03;;;1.81;100.00
26192;BME280;13935;55.672;37.764;2023-03-04T06:07:07;98053.41;;;2.11;100.00
26192;BME280;13935;55.672;37.764;2023-03-04T06:08:11;98054.44;;;1.96;100.00
26192;BME280;13935;55.672;37.764;2023-03-04T06:09:14;98060.81;;;2.11;100.00
26192;BME280;13935;55.672;37.764;2023-03-04T06:10:19;98053.38;;;2.08;100.00
26192;BME280;13935;55.672;37.764;2023-03-04T06:11:24;98056.97;;;1.75;100.00
26192;BME280;13935;55.672;37.764;2023-03-04T06:12:27;98049.09;;;1.67;100.00
26192;BME280;13935;55.672;37.764;2023-03-04T06:13:30;98044.66;;;1.88;100.00
26192;BME280;13935;55.672;37.764;2023-03-04T06:14:34;98058.97;;;1.45;100.00
26192;BME280;13935;55.672;37.764;2023-03-04T06:15:39;98048.38;;;1.73;100.00
26192;BME280;13935;55.672;37.764;2023-03-04T06:16:42;98061.19;;;1.69;100.00
26192;BME280;13935;55.672;37.764;2023-03-04T06:17:48;98061.91;;;2.03;100.00
26192;BME280;13935;55.672;37.764;2023-03-04T06:19:09;98053.97;;;1.87;100.00
26192;BME280;13935;55.672;37.764;2023-03-04T06:20:14;98053.34;;;2.04;100.00
26192;BME280;13935;55.672;37.764;2023-03-04T06:21:21;98048.69;;;2.05;100.00
26192;BME280;13935;55.672;37.764;2023-03-04T06:22:32;98043.09;;;1.91;100.00
26192;BME280;13935;55.672;37.764;2023-03-04T06:23:37;98051.97;;;1.84;100.00
26192;BME280;13935;55.672;37.764;2023-03-04T06:24:40;98059.75;;;2.22;100.00
26192;BME280;13935;55.672;37.764;2023-03-04T06:25:45;98050.88;;;2.32;100.00
26192;BME280;13935;55.672;37.764;2023-03-04T06:26:51;98048.34;;;2.60;100.00
26192;BME280;13935;55.672;37.764;2023-03-04T06:27:58;98048.09;;;2.79;100.00
26192;BME280;13935;55.672;37.764;2023-03-04T06:29:04;98046.94;;;2.80;100.00
26192;BME280;13935;55.672;37.764;2023-03-04T06:30:11;98047.34;;;2.82;100.00
26192;BME280;13935;55.672;37.764;2023-03-04T06:31:15;98045.41;;;2.85;100.00
26192;BME280;13935;55.672;37.764;2023-03-04T06:32:20;98041.22;;;3.02;100.00
26192;BME280;13935;55.672;37.764;2023-03-04T06:33:24;98035.31;;;2.96;100.00
26192;BME280;13935;55.672;37.764;2023-03-04T06:34:29;98043.41;;;2.76;100.00
26192;BME280;13935;55.672;37.764;2023-03-04T06:35:33;98038.47;;;2.98;100.00
26192;BME280;13935;55.672;37.764;2023-03-04T06:36:36;98038.94;;;3.18;100.00
26192;BME280;13935;55.672;37.764;2023-03-04T06:37:42;98043.31;;;3.29;100.00
26192;BME280;13935;55.672;37.764;2023-03-04T06:38:46;98034.66;;;3.17;100.00
26192;BME280;13935;55.672;37.764;2023-03-04T06:39:49;98028.84;;;3.25;100.00
26192;BME280;13935;55.672;37.764;2023-03-04T06:40:53;98026.03;;;3.04;100.00
26192;BME280;13935;55.672;37.764;2023-03-04T06:42:00;98037.00;;;3.15;100.00
26192;BME280;13935;55.672;37.764;2023-03-04T06:43:08;98034.56;;;2.96;100.00
26192;BME280;13935;55.672;37.764;2023-03-04T06:44:16;98031.59;;;3.25;100.00
26192;BME280;13935;55.672;37.764;2023-03-04T06:45:30;98035.47;;;3.24;100.00
26192;BME280;13935;55.672;37.764;2023-03-04T06:46:44;98030.06;;;3.31;100.00
26192;BME280;13935;55.672;37.764;2023-03-04T06:48:02;98026.13;;;3.32;100.00
26192;BME280;13935;55.672;37.764;2023-03-04T06:49:17;98034.75;;;3.38;100.00
26192;BME280;13935;55.672;37.764;2023-03-04T06:51:40;98023.69;;;3.06;100.00
26192;BME280;13935;55.672;37.764;2023-03-04T06:53:00;98015.94;;;3.19;100.00
26192;BME280;13935;55.672;37.764;2023-03-04T06:54:17;98013.13;;;3.01;100.00
26192;BME280;13935;55.672;37.764;2023-03-04T06:55:28;98011.28;;;3.19;100.00
26192;BME280;13935;55.672;37.764;2023-03-04T06:57:00;98017.56;;;3.30;100.00
26192;BME280;13935;55.672;37.764;2023-03-04T06:58:49;98015.06;;;2.97;100.00
26192;BME280;13935;55.672;37.764;2023-03-04T07:00:09;98012.69;;;2.89;100.00
26192;BME280;13935;55.672;37.764;2023-03-04T07:01:21;98016.66;;;3.02;100.00
26192;BME280;13935;55.672;37.764;2023-03-04T07:02:31;98009.63;;;3.04;100.00
26192;BME280;13935;55.672;37.764;2023-03-04T07:04:19;98007.50;;;2.70;100.00
26192;BME280;13935;55.672;37.764;2023-03-04T07:05:36;97999.34;;;2.74;100.00
26192;BME280;13935;55.672;37.764;2023-03-04T07:06:46;97997.22;;;2.46;100.00
26192;BME280;13935;55.672;37.764;2023-03-04T07:07:59;97999.16;;;2.49;100.00
26192;BME280;13935;55.672;37.764;2023-03-04T07:09:19;97996.06;;;2.47;100.00
26192;BME280;13935;55.672;37.764;2023-03-04T07:10:36;97996.09;;;2.51;100.00
26192;BME280;13935;55.672;37.764;2023-03-04T07:12:13;97989.56;;;2.69;100.00
26192;BME280;13935;55.672;37.764;2023-03-04T07:13:18;97986.34;;;3.42;100.00
26192;BME280;13935;55.672;37.764;2023-03-04T07:14:34;97989.97;;;3.84;100.00
26192;BME280;13935;55.672;37.764;2023-03-04T07:16:26;97992.75;;;4.15;100.00
26192;BME280;13935;55.672;37.764;2023-03-04T07:17:37;97989.56;;;3.68;100.00
26192;BME280;13935;55.672;37.764;2023-03-04T07:18:43;97984.50;;;4.32;100.00
26192;BME280;13935;55.672;37.764;2023-03-04T07:20:01;97979.44;;;4.24;100.00
26192;BME280;13935;55.672;37.764;2023-03-04T07:22:11;97980.59;;;4.20;100.00
26192;BME280;13935;55.672;37.764;2023-03-04T07:23:28;97975.50;;;4.01;100.00
26192;BME280;13935;55.672;37.764;2023-03-04T07:24:54;97971.63;;;3.98;100.00
26192;BME280;13935;55.672;37.764;2023-03-04T07:26:22;97973.97;;;4.41;100.00
26192;BME280;13935;55.672;37.764;2023-03-04T07:27:42;97968.47;;;4.52;100.00
26192;BME280;13935;55.672;37.764;2023-03-04T07:29:12;97964.59;;;4.35;100.00
26192;BME280;13935;55.672;37.764;2023-03-04T07:30:24;97961.84;;;4.28;100.00
26192;BME280;13935;55.672;37.764;2023-03-04T07:31:43;97970.81;;;4.36;99.39
26192;BME280;13935;55.672;37.764;2023-03-04T07:33:26;97963.00;;;4.38;97.46
26192;BME280;13935;55.672;37.764;2023-03-04T07:35:03;97958.31;;;4.38;96.23
26192;BME280;13935;55.672;37.764;2023-03-04T07:36:44;97954.41;;;4.39;95.80
26192;BME280;13935;55.672;37.764;2023-03-04T07:38:27;97967.66;;;4.69;95.08
26192;BME280;13935;55.672;37.764;2023-03-04T07:40:25;97955.94;;;4.61;94.22
26192;BME280;13935;55.672;37.764;2023-03-04T07:41:38;97959.00;;;4.88;94.39
26192;BME280;13935;55.672;37.764;2023-03-04T07:42:54;97958.19;;;4.87;95.38
26192;BME280;13935;55.672;37.764;2023-03-04T07:44:27;97954.28;;;4.88;94.50
26192;BME280;13935;55.672;37.764;2023-03-04T07:45:37;97951.19;;;4.83;94.98
26192;BME280;13935;55.672;37.764;2023-03-04T07:47:23;97959.84;;;4.64;97.13
26192;BME280;13935;55.672;37.764;2023-03-04T07:49:15;97947.97;;;5.08;100.00
26192;BME280;13935;55.672;37.764;2023-03-04T07:50:46;97944.41;;;5.15;100.00
26192;BME280;13935;55.672;37.764;2023-03-04T07:52:02;97941.56;;;5.39;100.00
26192;BME280;13935;55.672;37.764;2023-03-04T07:53:17;97948.78;;;5.73;98.33
26192;BME280;13935;55.672;37.764;2023-03-04T07:55:17;97945.69;;;5.64;95.51
26192;BME280;13935;55.672;37.764;2023-03-04T07:57:05;97941.06;;;5.55;92.86
26192;BME280;13935;55.672;37.764;2023-03-04T07:58:28;97935.28;;;5.39;91.44
26192;BME280;13935;55.672;37.764;2023-03-04T07:59:54;97936.84;;;5.36;90.95
26192;BME280;13935;55.672;37.764;2023-03-04T08:01:40;97937.69;;;5.30;91.54
26192;BME280;13935;55.672;37.764;2023-03-04T08:03:17;97929.88;;;5.18;91.08
26192;BME280;13935;55.672;37.764;2023-03-04T08:04:21;97930.88;;;4.77;91.06
26192;BME280;13935;55.672;37.764;2023-03-04T08:05:31;97938.75;;;4.43;93.45
26192;BME280;13935;55.672;37.764;2023-03-04T08:07:03;97931.25;;;4.75;95.86
26192;BME280;13935;55.672;37.764;2023-03-04T08:08:12;97932.50;;;4.46;98.35
26192;BME280;13935;55.672;37.764;2023-03-04T08:09:23;97930.19;;;4.27;100.00
26192;BME280;13935;55.672;37.764;2023-03-04T08:10:34;97929.44;;;3.99;100.00
26192;BME280;13935;55.672;37.764;2023-03-04T08:12:00;97935.69;;;3.86;100.00
26192;BME280;13935;55.672;37.764;2023-03-04T08:13:14;97930.59;;;3.95;100.00
26192;BME280;13935;55.672;37.764;2023-03-04T08:14:39;97930.59;;;3.63;100.00
26192;BME280;13935;55.672;37.764;2023-03-04T08:15:48;97934.09;;;3.60;100.00
26192;BME280;13935;55.672;37.764;2023-03-04T08:17:39;97925.50;;;3.55;100.00
26192;BME280;13935;55.672;37.764;2023-03-04T08:19:16;97923.16;;;3.47;100.00
26192;BME280;13935;55.672;37.764;2023-03-04T08:20:34;97922.38;;;3.63;100.00
26192;BME280;13935;55.672;37.764;2023-03-04T08:21:50;97922.34;;;3.46;100.00
26192;BME280;13935;55.672;37.764;2023-03-04T08:23:39;97923.53;;;3.45;100.00
26192;BME280;13935;55.672;37.764;2023-03-04T08:24:47;97920.78;;;3.45;100.00
26192;BME280;13935;55.672;37.764;2023-03-04T08:26:23;97915.34;;;3.49;100.00
26192;BME280;13935;55.672;37.764;2023-03-04T08:28:19;97914.53;;;3.34;100.00
26192;BME280;13935;55.672;37.764;2023-03-04T08:29:44;97907.56;;;3.68;100.00
26192;BME280;13935;55.672;37.764;2023-03-04T08:31:15;97906.00;;;3.70;100.00
26192;BME280;13935;55.672;37.764;2023-03-04T08:33:00;97909.88;;;3.94;100.00
26192;BME280;13935;55.672;37.764;2023-03-04T08:34:26;97901.31;;;3.78;100.00
26192;BME280;13935;55.672;37.764;2023-03-04T08:35:40;97907.16;;;4.04;100.00
26192;BME280;13935;55.672;37.764;2023-03-04T08:36:54;97905.97;;;4.09;100.00
26192;BME280;13935;55.672;37.764;2023-03-04T08:38:12;97908.72;;;4.12;100.00
26192;BME280;13935;55.672;37.764;2023-03-04T08:39:21;97902.81;;;4.27;100.00
26192;BME280;13935;55.672;37.764;2023-03-04T08:40:50;97891.88;;;4.31;100.00
26192;BME280;13935;55.672;37.764;2023-03-04T08:42:07;97901.25;;;4.30;100.00
26192;BME280;13935;55.672;37.764;2023-03-04T08:43:21;97887.16;;;4.31;100.00
26192;BME280;13935;55.672;37.764;2023-03-04T08:44:55;97894.16;;;4.53;100.00
26192;BME280;13935;55.672;37.764;2023-03-04T08:46:02;97891.47;;;4.43;100.00
26192;BME280;13935;55.672;37.764;2023-03-04T08:47:30;97891.84;;;4.45;100.00
26192;BME280;13935;55.672;37.764;2023-03-04T08:48:42;97894.94;;;4.50;100.00
26192;BME280;13935;55.672;37.764;2023-03-04T08:50:01;97893.06;;;4.20;100.00
26192;BME280;13935;55.672;37.764;2023-03-04T08:51:19;97893.06;;;4.20;100.00
26192;BME280;13935;55.672;37.764;2023-03-04T08:52:40;97884.91;;;4.06;100.00
26192;BME280;13935;55.672;37.764;2023-03-04T08:53:54;97886.47;;;3.96;100.00
26192;BME280;13935;55.672;37.764;2023-03-04T08:55:03;97883.34;;;3.91;100.00
26192;BME280;13935;55.672;37.764;2023-03-04T08:56:43;97882.53;;;4.08;100.00
26192;BME280;13935;55.672;37.764;2023-03-04T08:58:04;97876.31;;;4.00;100.00
26192;BME280;13935;55.672;37.764;2023-03-04T08:59:22;97880.22;;;3.89;100.00
26192;BME280;13935;55.672;37.764;2023-03-04T09:00:33;97879.44;;;3.99;100.00
26192;BME280;13935;55.672;37.764;2023-03-04T09:02:24;97879.41;;;4.13;100.00
26192;BME280;13935;55.672;37.764;2023-03-04T09:03:41;97875.53;;;3.93;100.00
26192;BME280;13935;55.672;37.764;2023-03-04T09:05:18;97871.59;;;4.08;100.00
26192;BME280;13935;55.672;37.764;2023-03-04T09:06:41;97865.72;;;4.13;100.00
26192;BME280;13935;55.672;37.764;2023-03-04T09:07:52;97862.22;;;4.12;100.00
26192;BME280;13935;55.672;37.764;2023-03-04T09:11:26;97859.13;;;3.96;100.00
26192;BME280;13935;55.672;37.764;2023-03-04T09:12:59;97858.72;;;4.15;100.00
26192;BME280;13935;55.672;37.764;2023-03-04T09:14:28;97847.66;;;4.46;100.00
26192;BME280;13935;55.672;37.764;2023-03-04T09:16:15;97856.59;;;4.57;100.00
26192;BME280;13935;55.672;37.764;2023-03-04T09:18:17;97845.63;;;4.64;100.00
26192;BME280;13935;55.672;37.764;2023-03-04T09:19:52;97844.66;;;5.05;100.00
26192;BME280;13935;55.672;37.764;2023-03-04T09:21:01;97834.91;;;5.55;100.00
26192;BME280;13935;55.672;37.764;2023-03-04T09:31:28;97821.09;;;5.15;97.46
26192;BME280;13935;55.672;37.764;2023-03-04T09:33:33;97814.56;;;4.95;100.00
26192;BME280;13935;55.672;37.764;2023-03-04T09:34:45;97804.09;;;4.80;100.00
26192;BME280;13935;55.672;37.764;2023-03-04T09:36:16;97805.75;;;4.63;100.00
26192;BME280;13935;55.672;37.764;2023-03-04T09:37:23;97805.94;;;4.96;100.00
26192;BME280;13935;55.672;37.764;2023-03-04T09:38:29;97798.63;;;4.76;100.00
26192;BME280;13935;55.672;37.764;2023-03-04T09:39:41;97797.56;;;4.56;100.00
26192;BME280;13935;55.672;37.764;2023-03-04T09:41:03;97796.41;;;4.54;100.00
26192;BME280;13935;55.672;37.764;2023-03-04T09:42:29;97794.50;;;4.47;100.00
26192;BME280;13935;55.672;37.764;2023-03-04T09:45:36;97790.84;;;4.71;100.00
26192;BME280;13935;55.672;37.764;2023-03-04T09:47:00;97789.41;;;4.46;100.00
26192;BME280;13935;55.672;37.764;2023-03-04T09:48:50;97776.56;;;4.32;100.00
26192;BME280;13935;55.672;37.764;2023-03-04T09:50:11;97774.03;;;4.69;100.00
26192;BME280;13935;55.672;37.764;2023-03-04T09:53:23;97771.78;;;4.50;100.00